createdAt,value
2018-06-02T00:00:19.135Z,14.30
2018-06-02T00:02:47.456Z,13.23
2018-06-02T00:05:15.001Z,13.98
2018-06-02T00:07:42.571Z,14.05
2018-06-02T00:10:10.179Z,23.02
2018-06-02T00:12:37.763Z,12.43
2018-06-02T00:15:06.102Z,14.05
2018-06-02T00:17:33.646Z,13.55
2018-06-02T00:20:01.195Z,17.37
2018-06-02T00:22:28.776Z,17.10
2018-06-02T00:24:56.340Z,14.68
2018-06-02T00:27:23.891Z,19.30
2018-06-02T00:29:51.446Z,17.30
2018-06-02T00:32:19.014Z,20.17
2018-06-02T00:34:46.563Z,14.80
2018-06-02T00:37:14.125Z,24.95
2018-06-02T00:39:41.699Z,17.30
2018-06-02T00:42:09.240Z,18.50
2018-06-02T00:44:37.579Z,17.52
2018-06-02T00:47:05.130Z,18.20
2018-06-02T00:49:32.703Z,18.35
2018-06-02T00:52:00.274Z,20.95
2018-06-02T00:54:39.657Z,18.10
2018-06-02T00:57:07.995Z,22.37
2018-06-02T00:59:35.567Z,21.58
2018-06-02T01:02:03.155Z,14.87
2018-06-02T01:04:30.703Z,19.27
2018-06-02T01:06:58.265Z,24.48
2018-06-02T01:09:25.818Z,18.17
2018-06-02T01:11:53.356Z,13.75
2018-06-02T01:14:20.923Z,19.80
2018-06-02T01:16:48.457Z,15.07
2018-06-02T01:19:16.767Z,14.70
2018-06-02T01:21:44.322Z,11.40
2018-06-02T01:24:11.880Z,13.13
2018-06-02T01:26:39.470Z,12.77
2018-06-02T01:29:07.015Z,16.05
2018-06-02T01:31:34.665Z,14.52
2018-06-02T01:34:02.975Z,14.40
2018-06-02T01:36:30.515Z,16.37
2018-06-02T01:38:58.078Z,15.75
2018-06-02T01:41:25.641Z,10.70
2018-06-02T01:43:53.938Z,11.68
2018-06-02T01:46:21.527Z,11.45
2018-06-02T01:48:49.062Z,10.75
2018-06-02T01:51:16.612Z,12.88
2018-06-02T01:53:44.167Z,12.88
2018-06-02T01:56:12.498Z,16.42
2018-06-02T01:58:40.068Z,15.73
2018-06-02T02:01:07.662Z,11.90
2018-06-02T02:03:35.227Z,13.75
2018-06-02T02:06:02.795Z,11.10
2018-06-02T02:08:30.356Z,15.48
2018-06-02T02:10:57.894Z,11.27
2018-06-02T02:13:25.421Z,11.68
2018-06-02T02:15:52.994Z,11.90
2018-06-02T02:18:20.566Z,11.18
2018-06-02T02:20:48.116Z,13.15
2018-06-02T02:23:15.709Z,10.95
2018-06-02T02:25:43.278Z,13.70
2018-06-02T02:28:10.823Z,10.07
2018-06-02T02:30:38.365Z,12.77
2018-06-02T02:33:05.907Z,9.40
2018-06-02T02:35:34.240Z,9.48
2018-06-02T02:38:01.783Z,9.57
2018-06-02T02:40:29.345Z,10.10
2018-06-02T02:42:56.903Z,11.30
2018-06-02T02:45:24.493Z,14.63
2018-06-02T02:47:52.054Z,12.77
2018-06-02T02:50:19.590Z,13.70
2018-06-02T02:52:47.931Z,12.48
2018-06-02T02:55:15.487Z,12.90
2018-06-02T02:57:43.099Z,14.82
2018-06-02T03:00:10.645Z,12.63
2018-06-02T03:02:38.955Z,19.27
2018-06-02T03:05:06.515Z,14.43
2018-06-02T03:07:34.059Z,21.90
2018-06-02T03:10:02.381Z,11.35
2018-06-02T03:12:29.938Z,10.18
2018-06-02T03:14:57.503Z,11.27
2018-06-02T03:17:25.041Z,12.18
2018-06-02T03:19:53.335Z,13.88
2018-06-02T03:22:20.898Z,13.00
2018-06-02T03:24:48.451Z,13.93
2018-06-02T03:27:16.812Z,18.35
2018-06-02T03:29:44.386Z,12.65
2018-06-02T03:32:12.712Z,12.32
2018-06-02T03:34:40.275Z,17.80
2018-06-02T03:37:07.843Z,19.40
2018-06-02T03:39:35.387Z,10.68
2018-06-02T03:42:02.979Z,11.23
2018-06-02T03:44:30.523Z,10.55
2018-06-02T03:46:58.090Z,12.15
2018-06-02T03:49:25.639Z,11.35
2018-06-02T03:51:53.199Z,9.48
2018-06-02T03:54:20.794Z,9.90
2018-06-02T03:56:48.361Z,10.32
2018-06-02T03:59:15.922Z,10.23
2018-06-02T04:01:44.230Z,10.65
2018-06-02T04:04:11.804Z,10.57
2018-06-02T04:06:39.378Z,10.85
2018-06-02T04:09:07.691Z,13.02
2018-06-02T04:11:35.220Z,32.30
2018-06-02T04:14:02.786Z,13.93
2018-06-02T04:16:30.331Z,19.30
2018-06-02T04:18:57.866Z,12.15
2018-06-02T04:21:25.417Z,11.43
2018-06-02T04:23:52.958Z,11.57
2018-06-02T04:26:21.292Z,15.98
2018-06-02T04:28:48.834Z,13.05
2018-06-02T04:31:16.389Z,11.90
2018-06-02T04:33:43.938Z,12.13
2018-06-02T04:36:11.485Z,10.40
2018-06-02T04:38:39.042Z,17.17
2018-06-02T04:41:06.573Z,11.23
2018-06-02T04:43:34.102Z,14.27
2018-06-02T04:46:01.640Z,18.58
2018-06-02T04:48:29.966Z,9.70
2018-06-02T04:50:57.506Z,16.30
2018-06-02T04:53:25.072Z,9.30
2018-06-02T04:55:52.645Z,11.12
2018-06-02T04:58:20.186Z,11.15
2018-06-02T05:00:48.491Z,8.35
2018-06-02T05:03:16.013Z,8.98
2018-06-02T05:05:43.551Z,9.48
2018-06-02T05:08:11.090Z,8.77
2018-06-02T05:10:38.621Z,10.52
2018-06-02T05:13:06.946Z,7.75
2018-06-02T05:15:34.508Z,8.45
2018-06-02T05:18:02.045Z,8.93
2018-06-02T05:20:29.582Z,9.20
2018-06-02T05:22:57.885Z,10.00
2018-06-02T05:25:26.189Z,19.83
2018-06-02T05:27:53.774Z,9.25
2018-06-02T05:30:21.303Z,16.87
2018-06-02T05:32:48.842Z,8.73
2018-06-02T05:35:17.190Z,11.77
2018-06-02T05:37:44.829Z,11.65
2018-06-02T05:40:12.366Z,13.23
2018-06-02T05:42:40.727Z,10.60
2018-06-02T05:45:09.050Z,7.57
2018-06-02T05:47:36.610Z,13.18
2018-06-02T05:50:04.183Z,11.77
2018-06-02T05:52:31.723Z,8.25
2018-06-02T05:55:00.226Z,10.60
2018-06-02T05:57:27.858Z,7.93
2018-06-02T05:59:56.224Z,7.62
2018-06-02T06:02:23.758Z,12.50
2018-06-02T06:04:51.304Z,8.80
2018-06-02T06:07:18.871Z,8.05
2018-06-02T06:09:46.416Z,18.60
2018-06-02T06:12:14.742Z,7.40
2018-06-02T06:14:42.279Z,11.05
2018-06-02T06:17:09.819Z,12.45
2018-06-02T06:19:37.481Z,8.52
2018-06-02T06:22:04.965Z,7.50
2018-06-02T06:24:32.510Z,6.90
2018-06-02T06:27:00.810Z,7.05
2018-06-02T06:29:28.342Z,7.57
2018-06-02T06:31:56.686Z,9.63
2018-06-02T06:34:24.301Z,11.82
2018-06-02T06:36:52.614Z,8.23
2018-06-02T06:39:20.168Z,9.07
2018-06-02T06:41:47.697Z,7.12
2018-06-02T06:44:15.225Z,9.15
2018-06-02T06:46:42.793Z,7.00
2018-06-02T06:49:10.350Z,12.02
2018-06-02T06:51:37.905Z,5.50
2018-06-02T06:54:05.442Z,5.50
2018-06-02T06:56:33.058Z,8.23
2018-06-02T06:59:00.606Z,5.28
2018-06-02T07:01:28.178Z,5.12
2018-06-02T07:03:55.719Z,10.73
2018-06-02T07:06:23.262Z,6.82
2018-06-02T07:08:50.822Z,4.32
2018-06-02T07:11:18.381Z,4.68
2018-06-02T07:13:45.955Z,4.80
2018-06-02T07:16:13.503Z,5.57
2018-06-02T07:18:41.101Z,4.32
2018-06-02T07:21:08.666Z,4.72
2018-06-02T07:23:36.235Z,7.78
2018-06-02T07:26:03.782Z,6.55
2018-06-02T07:28:31.358Z,8.40
2018-06-02T07:30:58.931Z,5.35
2018-06-02T07:33:26.493Z,5.25
2018-06-02T07:35:54.048Z,4.55
2018-06-02T07:38:21.597Z,7.53
2018-06-02T07:40:49.179Z,4.27
2018-06-02T07:43:16.750Z,8.50
2018-06-02T07:45:44.291Z,3.23
2018-06-02T07:48:12.795Z,5.27
2018-06-02T07:50:40.330Z,5.33
2018-06-02T07:53:07.898Z,3.50
2018-06-02T07:55:35.442Z,3.37
2018-06-02T07:58:02.984Z,2.70
2018-06-02T08:00:30.532Z,5.00
2018-06-02T08:02:58.071Z,3.53
2018-06-02T08:05:25.605Z,2.70
2018-06-02T08:07:53.939Z,11.50
2018-06-02T08:10:21.506Z,5.37
2018-06-02T08:12:49.070Z,2.53
2018-06-02T08:15:16.612Z,3.63
2018-06-02T08:17:44.174Z,5.43
2018-06-02T08:20:11.724Z,3.70
2018-06-02T08:22:39.286Z,7.00
2018-06-02T08:25:06.870Z,3.73
2018-06-02T08:27:35.512Z,2.87
2018-06-02T08:30:03.074Z,2.40
2018-06-02T08:32:30.634Z,3.17
2018-06-02T08:34:58.188Z,2.80
2018-06-02T08:37:25.735Z,4.17
2018-06-02T08:39:53.277Z,2.73
2018-06-02T08:42:20.854Z,3.27
2018-06-02T08:44:49.167Z,2.80
2018-06-02T08:47:16.719Z,3.03
2018-06-02T08:49:44.290Z,2.90
2018-06-02T08:52:11.848Z,3.63
2018-06-02T08:54:39.463Z,5.97
2018-06-02T08:57:07.021Z,4.90
2018-06-02T08:59:34.587Z,4.70
2018-06-02T09:02:02.163Z,4.47
2018-06-02T09:04:29.719Z,2.50
2018-06-02T09:06:57.281Z,2.10
2018-06-02T09:09:24.831Z,2.83
2018-06-02T09:11:53.163Z,2.40
2018-06-02T09:14:20.730Z,3.03
2018-06-02T09:16:48.275Z,2.47
2018-06-02T09:19:15.802Z,2.40
2018-06-02T09:21:44.183Z,2.70
2018-06-02T09:24:11.765Z,15.50
2018-06-02T09:26:39.315Z,4.20
2018-06-02T09:29:07.633Z,4.50
2018-06-02T09:31:35.178Z,4.33
2018-06-02T09:34:02.759Z,2.53
2018-06-02T09:36:30.309Z,4.00
2018-06-02T09:38:57.851Z,4.27
2018-06-02T09:41:26.155Z,2.70
2018-06-02T09:43:53.716Z,3.30
2018-06-02T09:46:21.279Z,4.03
2018-06-02T09:48:48.831Z,3.60
2018-06-02T09:51:17.139Z,2.57
2018-06-02T09:53:44.702Z,3.10
2018-06-02T09:56:12.264Z,3.27
2018-06-02T09:58:39.824Z,2.90
2018-06-02T10:01:07.356Z,3.20
2018-06-02T10:03:34.908Z,3.43
2018-06-02T10:06:02.450Z,2.67
2018-06-02T10:08:30.019Z,2.67
2018-06-02T10:10:57.570Z,2.90
2018-06-02T10:13:25.106Z,2.40
2018-06-02T10:15:52.639Z,2.23
2018-06-02T10:18:20.206Z,3.60
2018-06-02T10:20:47.778Z,2.00
2018-06-02T10:23:16.069Z,3.17
2018-06-02T10:25:44.424Z,3.20
2018-06-02T10:28:11.961Z,3.50
2018-06-02T10:30:39.495Z,2.50
2018-06-02T10:33:07.018Z,3.70
2018-06-02T10:35:34.625Z,2.70
2018-06-02T10:38:02.131Z,2.40
2018-06-02T10:40:29.706Z,3.23
2018-06-02T10:42:57.254Z,2.20
2018-06-02T10:45:24.824Z,2.13
2018-06-02T10:47:52.363Z,3.27
2018-06-02T10:50:19.913Z,3.37
2018-06-02T10:52:47.461Z,2.80
2018-06-02T10:55:15.031Z,5.27
2018-06-02T10:57:42.580Z,5.30
2018-06-02T11:00:10.160Z,2.40
2018-06-02T11:02:37.699Z,2.70
2018-06-02T11:05:06.013Z,3.23
2018-06-02T11:07:33.685Z,6.03
2018-06-02T11:10:01.252Z,3.77
2018-06-02T11:12:28.875Z,4.80
2018-06-02T11:14:57.194Z,3.33
2018-06-02T11:17:24.750Z,3.80
2018-06-02T11:19:52.310Z,3.30
2018-06-02T11:22:19.859Z,4.07
2018-06-02T11:24:48.167Z,3.43
2018-06-02T11:27:15.702Z,3.10
2018-06-02T11:29:44.023Z,3.57
2018-06-02T11:32:11.563Z,2.73
2018-06-02T11:34:39.139Z,5.73
2018-06-02T11:37:06.689Z,4.03
2018-06-02T11:39:34.237Z,10.17
2018-06-02T11:42:02.542Z,3.90
2018-06-02T11:44:30.093Z,3.70
2018-06-02T11:46:57.653Z,8.30
2018-06-02T11:49:25.185Z,3.47
2018-06-02T11:51:52.761Z,5.37
2018-06-02T11:54:20.403Z,4.03
2018-06-02T11:56:47.948Z,3.83
2018-06-02T11:59:15.499Z,4.90
2018-06-02T12:01:43.063Z,5.17
2018-06-02T12:04:10.596Z,5.50
2018-06-02T12:06:38.132Z,5.30
2018-06-02T12:09:05.681Z,5.67
2018-06-02T12:11:33.250Z,5.60
2018-06-02T12:14:00.804Z,6.43
2018-06-02T12:16:28.431Z,6.73
2018-06-02T12:18:55.972Z,9.47
2018-06-02T12:21:24.307Z,5.17
2018-06-02T12:23:51.883Z,6.90
2018-06-02T12:26:19.436Z,6.00
2018-06-02T12:28:47.004Z,6.97
2018-06-02T12:31:14.569Z,5.93
2018-06-02T12:33:42.125Z,6.10
2018-06-02T12:36:09.681Z,5.90
2018-06-02T12:38:37.223Z,8.20
2018-06-02T12:41:04.792Z,7.50
2018-06-02T12:43:32.352Z,8.00
2018-06-02T12:45:59.895Z,7.23
2018-06-02T12:48:28.220Z,7.10
2018-06-02T12:50:55.790Z,7.20
2018-06-02T12:53:23.432Z,7.50
2018-06-02T12:55:50.931Z,7.10
2018-06-02T12:58:18.494Z,5.90
2018-06-02T13:00:46.657Z,6.17
2018-06-02T13:03:15.211Z,7.93
2018-06-02T13:05:43.527Z,5.83
2018-06-02T13:08:11.076Z,6.87
2018-06-02T13:10:38.652Z,6.73
2018-06-02T13:13:06.285Z,7.40
2018-06-02T13:15:33.834Z,6.53
2018-06-02T13:18:01.402Z,7.17
2018-06-02T13:20:28.946Z,6.90
2018-06-02T13:22:56.512Z,6.70
2018-06-02T13:25:24.078Z,6.80
2018-06-02T13:27:51.630Z,7.30
2018-06-02T13:30:19.183Z,10.53
2018-06-02T13:32:46.751Z,9.43
2018-06-02T13:35:14.324Z,11.07
2018-06-02T13:37:41.894Z,8.23
2018-06-02T13:40:09.467Z,7.07
2018-06-02T13:42:37.026Z,6.97
2018-06-02T13:45:04.600Z,8.00
2018-06-02T13:47:32.161Z,7.73
2018-06-02T13:49:59.727Z,7.10
2018-06-02T13:52:27.278Z,7.73
2018-06-02T13:54:54.850Z,12.63
2018-06-02T13:57:22.409Z,8.07
2018-06-02T13:59:49.951Z,9.07
2018-06-02T14:02:17.485Z,7.67
2018-06-02T14:04:45.069Z,6.93
2018-06-02T14:07:12.619Z,8.83
2018-06-02T14:09:40.174Z,8.37
2018-06-02T14:12:07.708Z,7.87
2018-06-02T14:14:35.240Z,16.43
2018-06-02T14:17:02.770Z,13.57
2018-06-02T14:19:30.380Z,18.80
2018-06-02T14:21:57.950Z,13.33
2018-06-02T14:24:25.534Z,28.53
2018-06-02T14:26:53.870Z,32.50
2018-06-02T14:29:21.420Z,19.13
2018-06-02T14:31:48.966Z,21.93
2018-06-02T14:34:16.558Z,14.70
2018-06-02T14:36:44.108Z,20.27
2018-06-02T14:39:11.663Z,12.60
2018-06-02T14:41:39.240Z,11.47
2018-06-02T14:44:06.797Z,13.87
2018-06-02T14:46:34.343Z,17.23
2018-06-02T14:49:02.683Z,11.47
2018-06-02T14:51:30.229Z,15.40
2018-06-02T14:53:57.802Z,13.93
2018-06-02T14:56:25.387Z,15.33
2018-06-02T14:58:52.939Z,12.90
2018-06-02T15:01:20.491Z,14.50
2018-06-02T15:03:48.039Z,11.57
2018-06-02T15:06:15.609Z,12.50
2018-06-02T15:08:43.160Z,11.83
2018-06-02T15:11:10.714Z,11.87
2018-06-02T15:13:38.278Z,11.47
2018-06-02T15:16:05.900Z,11.43
2018-06-02T15:18:33.474Z,13.50
2018-06-02T15:21:01.051Z,13.43
2018-06-02T15:23:29.369Z,12.57
2018-06-02T15:25:56.939Z,11.50
2018-06-02T15:28:24.602Z,21.33
2018-06-02T15:30:52.136Z,16.03
2018-06-02T15:33:20.475Z,14.90
2018-06-02T15:35:48.045Z,12.23
2018-06-02T15:38:15.590Z,14.23
2018-06-02T15:40:43.139Z,11.60
2018-06-02T15:43:10.719Z,18.00
2018-06-02T15:45:38.307Z,17.03
2018-06-02T15:48:05.892Z,11.33
2018-06-02T15:50:34.199Z,13.07
2018-06-02T15:53:01.733Z,10.90
2018-06-02T15:55:29.347Z,10.60
2018-06-02T15:57:56.915Z,12.07
2018-06-02T16:00:24.467Z,10.40
2018-06-02T16:02:52.010Z,11.30
2018-06-02T16:05:20.322Z,11.83
2018-06-02T16:07:48.089Z,13.53
2018-06-02T16:10:15.621Z,13.53
2018-06-02T16:12:43.953Z,11.60
2018-06-02T16:15:11.566Z,15.30
2018-06-02T16:17:39.898Z,11.00
2018-06-02T16:20:07.443Z,11.43
2018-06-02T16:22:34.986Z,12.73
2018-06-02T16:25:02.555Z,10.47
2018-06-02T16:27:30.092Z,11.63
2018-06-02T16:29:58.392Z,11.63
2018-06-02T16:32:26.698Z,10.57
2018-06-02T16:34:54.266Z,14.13
2018-06-02T16:37:21.828Z,10.27
2018-06-02T16:39:49.385Z,9.57
2018-06-02T16:42:16.958Z,12.83
2018-06-02T16:44:44.502Z,11.23
2018-06-02T16:47:12.096Z,9.80
2018-06-02T16:49:39.617Z,10.57
2018-06-02T16:52:07.917Z,15.50
2018-06-02T16:54:35.462Z,13.20
2018-06-02T16:57:03.794Z,14.23
2018-06-02T16:59:31.370Z,12.83
2018-06-02T17:01:58.922Z,14.90
2018-06-02T17:04:26.489Z,20.20
2018-06-02T17:06:54.039Z,25.10
2018-06-02T17:09:21.572Z,24.00
2018-06-02T17:11:49.133Z,22.07
2018-06-02T17:14:16.677Z,22.17
2018-06-02T17:16:44.998Z,20.17
2018-06-02T17:19:12.566Z,18.63
2018-06-02T17:21:40.126Z,22.67
2018-06-02T17:24:07.694Z,23.47
2018-06-02T17:26:35.268Z,21.90
2018-06-02T17:29:02.827Z,24.40
2018-06-02T17:31:30.378Z,34.90
2018-06-02T17:33:57.937Z,23.47
2018-06-02T17:36:25.480Z,23.63
2018-06-02T17:38:53.814Z,23.23
2018-06-02T17:41:21.354Z,20.60
2018-06-02T17:43:48.895Z,23.87
2018-06-02T17:46:17.237Z,18.07
2018-06-02T17:48:44.774Z,17.07
2018-06-02T17:51:12.323Z,21.70
2018-06-02T17:53:39.909Z,14.93
2018-06-02T17:56:07.463Z,17.87
2018-06-02T17:58:35.033Z,14.37
2018-06-02T18:01:02.657Z,18.27
2018-06-02T18:03:30.961Z,14.97
2018-06-02T18:05:58.501Z,17.70
2018-06-02T18:08:26.833Z,13.60
2018-06-02T18:10:54.382Z,14.17
2018-06-02T18:13:21.955Z,19.00
2018-06-02T18:15:49.534Z,15.90
2018-06-02T18:18:17.112Z,15.17
2018-06-02T18:20:44.675Z,13.13
2018-06-02T18:23:12.260Z,16.93
2018-06-02T18:25:40.615Z,15.20
2018-06-02T18:28:08.188Z,13.07
2018-06-02T18:30:35.767Z,15.13
2018-06-02T18:33:03.339Z,15.77
2018-06-02T18:35:31.658Z,17.73
2018-06-02T18:37:59.202Z,16.13
2018-06-02T18:40:27.609Z,15.17
2018-06-02T18:42:55.621Z,19.43
2018-06-02T18:45:23.157Z,15.60
2018-06-02T18:47:50.721Z,13.77
2018-06-02T18:50:18.290Z,13.40
2018-06-02T18:52:45.834Z,16.10
2018-06-02T18:55:13.377Z,16.90
2018-06-02T18:57:40.922Z,12.93
2018-06-02T19:00:09.245Z,12.20
2018-06-02T19:02:36.792Z,17.60
2018-06-02T19:05:04.370Z,17.83
2018-06-02T19:07:31.941Z,17.20
2018-06-02T19:09:59.531Z,17.63
2018-06-02T19:12:27.071Z,16.57
2018-06-02T19:14:54.619Z,16.73
2018-06-02T19:17:22.210Z,13.40
2018-06-02T19:19:49.786Z,15.70
2018-06-02T19:22:17.329Z,16.27
2018-06-02T19:24:44.926Z,14.00
2018-06-02T19:27:12.543Z,16.53
2018-06-02T19:29:40.126Z,17.70
2018-06-02T19:32:07.674Z,16.80
2018-06-02T19:34:35.233Z,13.57
2018-06-02T19:37:02.801Z,14.87
2018-06-02T19:39:30.369Z,14.70
2018-06-02T19:41:57.918Z,15.77
2018-06-02T19:44:26.231Z,17.20
2018-06-02T19:46:53.815Z,17.87
2018-06-02T19:49:58.703Z,16.93
2018-06-02T19:52:27.210Z,15.58
2018-06-02T19:54:55.721Z,15.73
2018-06-02T19:57:24.298Z,15.67
2018-06-02T19:59:52.905Z,18.00
2018-06-02T20:02:21.424Z,16.40
2018-06-02T20:04:50.006Z,17.47
2018-06-02T20:07:18.602Z,18.98
2018-06-02T20:09:47.160Z,21.07
2018-06-02T20:12:15.723Z,18.90
2018-06-02T20:14:44.370Z,23.40
2018-06-02T20:17:12.865Z,21.87
2018-06-02T20:19:41.419Z,20.73
2018-06-02T20:22:09.953Z,21.52
2018-06-02T20:24:38.531Z,21.10
2018-06-02T20:27:07.148Z,20.73
2018-06-02T20:29:35.699Z,20.83
2018-06-02T20:32:04.274Z,24.05
2018-06-02T20:34:32.926Z,20.63
2018-06-02T20:37:01.498Z,17.00
2018-06-02T20:39:30.051Z,18.92
2018-06-02T20:41:58.580Z,25.00
2018-06-02T20:44:27.123Z,26.12
2018-06-02T20:46:55.731Z,29.25
2018-06-02T20:49:24.297Z,21.65
2018-06-02T20:51:52.856Z,20.80
2018-06-02T20:54:21.355Z,24.75
2018-06-02T20:56:49.896Z,20.85
2018-06-02T20:59:18.449Z,23.87
2018-06-02T21:01:47.055Z,23.42
2018-06-02T21:04:15.619Z,22.87
2018-06-02T21:06:44.275Z,25.88
2018-06-02T21:09:12.933Z,23.65
2018-06-02T21:11:41.472Z,21.77
2018-06-02T21:14:10.005Z,19.67
2018-06-02T21:16:38.527Z,25.92
2018-06-02T21:19:07.051Z,23.47
2018-06-02T21:21:35.615Z,23.75
2018-06-02T21:24:04.163Z,25.95
2018-06-02T21:26:32.732Z,28.87
2018-06-02T21:29:01.267Z,25.65
2018-06-02T21:31:29.794Z,27.20
2018-06-02T21:33:58.324Z,23.90
2018-06-02T21:36:26.877Z,26.27
2018-06-02T21:38:55.445Z,24.20
2018-06-02T21:41:23.966Z,26.50
2018-06-02T21:43:52.515Z,28.35
2018-06-02T21:46:21.062Z,24.72
2018-06-02T21:48:49.579Z,23.18
2018-06-02T21:51:18.376Z,27.93
2018-06-02T21:53:46.653Z,28.38
2018-06-02T21:56:15.167Z,23.60
2018-06-02T21:58:43.711Z,22.25
2018-06-02T22:01:12.325Z,21.07
2018-06-02T22:03:40.923Z,23.47
2018-06-02T22:06:09.435Z,24.55
2018-06-02T22:08:38.037Z,25.12
2018-06-02T22:11:06.646Z,24.37
2018-06-02T22:13:35.291Z,28.45
2018-06-02T22:16:03.915Z,23.18
2018-06-02T22:18:32.431Z,23.27
2018-06-02T22:21:00.950Z,19.80
2018-06-02T22:23:29.495Z,21.95
2018-06-02T22:25:58.035Z,22.02
2018-06-02T22:28:26.557Z,20.30
2018-06-02T22:30:55.132Z,24.35
2018-06-02T22:33:23.655Z,19.62
2018-06-02T22:35:52.185Z,23.20
2018-06-02T22:38:20.780Z,22.22
2018-06-02T22:40:49.370Z,24.10
2018-06-02T22:43:17.895Z,23.67
2018-06-02T22:45:46.430Z,29.52
2018-06-02T22:48:14.966Z,20.95
2018-06-02T22:50:43.481Z,27.17
2018-06-02T22:53:12.096Z,32.83
2018-06-02T22:55:40.779Z,23.57
2018-06-02T22:58:09.408Z,23.52
2018-06-02T23:00:38.048Z,22.85
2018-06-02T23:03:06.602Z,28.62
2018-06-02T23:05:35.215Z,24.77
2018-06-02T23:08:03.829Z,29.98
2018-06-02T23:10:32.415Z,22.13
2018-06-02T23:13:00.960Z,24.15
2018-06-02T23:15:29.505Z,31.35
2018-06-02T23:17:58.027Z,26.17
2018-06-02T23:20:26.602Z,32.40
2018-06-02T23:22:55.117Z,28.60
2018-06-02T23:25:23.655Z,28.27
2018-06-02T23:27:52.181Z,31.68
2018-06-02T23:30:20.687Z,35.20
2018-06-02T23:32:49.203Z,33.48
2018-06-02T23:35:17.734Z,29.65
2018-06-02T23:37:46.259Z,27.35
2018-06-02T23:40:14.774Z,36.83
2018-06-02T23:42:43.278Z,34.20
2018-06-02T23:45:11.827Z,38.35
2018-06-02T23:47:40.351Z,43.40
2018-06-02T23:50:08.894Z,34.38
2018-06-02T23:52:37.423Z,34.20
2018-06-02T23:55:05.987Z,34.20
2018-06-02T23:57:34.504Z,31.30
